sensor_id;sensor_type;location;lat;lon;timestamp;P1;durP1;ratioP1;P2;durP2;ratioP2
43891;SDS011;29555;45.350;5.578;2023-10-13T00:02:10;5.80;;;3.90;;
43891;SDS011;29555;45.350;5.578;2023-10-13T00:04:36;11.43;;;4.63;;
43891;SDS011;29555;45.350;5.578;2023-10-13T00:07:02;7.82;;;3.53;;
43891;SDS011;29555;45.350;5.578;2023-10-13T00:09:29;5.80;;;4.35;;
43891;SDS011;29555;45.350;5.578;2023-10-13T00:11:59;4.85;;;4.35;;
43891;SDS011;29555;45.350;5.578;2023-10-13T00:14:25;5.85;;;4.28;;
43891;SDS011;29555;45.350;5.578;2023-10-13T00:17:00;5.88;;;3.50;;
43891;SDS011;29555;45.350;5.578;2023-10-13T00:19:38;4.13;;;3.25;;
43891;SDS011;29555;45.350;5.578;2023-10-13T00:22:11;5.43;;;3.40;;
43891;SDS011;29555;45.350;5.578;2023-10-13T00:24:38;5.75;;;2.88;;
43891;SDS011;29555;45.350;5.578;2023-10-13T00:27:16;5.05;;;3.33;;
43891;SDS011;29555;45.350;5.578;2023-10-13T00:29:58;3.40;;;2.85;;
43891;SDS011;29555;45.350;5.578;2023-10-13T00:32:44;5.50;;;3.13;;
43891;SDS011;29555;45.350;5.578;2023-10-13T00:35:12;7.50;;;3.95;;
43891;SDS011;29555;45.350;5.578;2023-10-13T00:37:50;13.98;;;4.25;;
43891;SDS011;29555;45.350;5.578;2023-10-13T00:40:18;4.32;;;2.78;;
43891;SDS011;29555;45.350;5.578;2023-10-13T00:42:57;6.07;;;3.45;;
43891;SDS011;29555;45.350;5.578;2023-10-13T00:45:45;5.30;;;3.53;;
43891;SDS011;29555;45.350;5.578;2023-10-13T00:48:13;4.22;;;2.85;;
43891;SDS011;29555;45.350;5.578;2023-10-13T00:50:41;6.38;;;2.92;;
43891;SDS011;29555;45.350;5.578;2023-10-13T00:53:07;4.35;;;3.22;;
43891;SDS011;29555;45.350;5.578;2023-10-13T00:55:33;6.47;;;3.53;;
43891;SDS011;29555;45.350;5.578;2023-10-13T00:57:59;3.60;;;2.92;;
43891;SDS011;29555;45.350;5.578;2023-10-13T01:00:29;9.55;;;4.15;;
43891;SDS011;29555;45.350;5.578;2023-10-13T01:02:55;7.53;;;4.25;;
43891;SDS011;29555;45.350;5.578;2023-10-13T01:05:24;6.18;;;3.50;;
43891;SDS011;29555;45.350;5.578;2023-10-13T01:07:50;4.93;;;3.00;;
43891;SDS011;29555;45.350;5.578;2023-10-13T01:10:20;5.38;;;2.88;;
43891;SDS011;29555;45.350;5.578;2023-10-13T01:12:50;6.43;;;3.88;;
43891;SDS011;29555;45.350;5.578;2023-10-13T01:15:17;8.25;;;3.83;;
43891;SDS011;29555;45.350;5.578;2023-10-13T01:17:46;4.35;;;3.00;;
43891;SDS011;29555;45.350;5.578;2023-10-13T01:20:12;7.43;;;3.85;;
43891;SDS011;29555;45.350;5.578;2023-10-13T01:22:49;3.50;;;2.80;;
43891;SDS011;29555;45.350;5.578;2023-10-13T01:25:22;10.65;;;3.10;;
43891;SDS011;29555;45.350;5.578;2023-10-13T01:27:53;5.30;;;4.15;;
43891;SDS011;29555;45.350;5.578;2023-10-13T01:30:20;4.80;;;2.85;;
43891;SDS011;29555;45.350;5.578;2023-10-13T01:32:50;6.15;;;3.20;;
43891;SDS011;29555;45.350;5.578;2023-10-13T01:35:17;6.28;;;3.38;;
43891;SDS011;29555;45.350;5.578;2023-10-13T01:37:52;7.38;;;4.03;;
43891;SDS011;29555;45.350;5.578;2023-10-13T01:40:17;5.18;;;3.40;;
43891;SDS011;29555;45.350;5.578;2023-10-13T01:42:48;4.32;;;3.05;;
43891;SDS011;29555;45.350;5.578;2023-10-13T01:45:20;10.80;;;3.25;;
43891;SDS011;29555;45.350;5.578;2023-10-13T01:47:46;6.82;;;2.90;;
43891;SDS011;29555;45.350;5.578;2023-10-13T01:50:11;3.88;;;3.08;;
43891;SDS011;29555;45.350;5.578;2023-10-13T01:52:45;3.80;;;2.88;;
43891;SDS011;29555;45.350;5.578;2023-10-13T01:55:11;12.60;;;3.65;;
43891;SDS011;29555;45.350;5.578;2023-10-13T01:57:37;9.35;;;3.63;;
43891;SDS011;29555;45.350;5.578;2023-10-13T02:00:02;6.35;;;3.33;;
43891;SDS011;29555;45.350;5.578;2023-10-13T02:02:36;5.05;;;3.22;;
43891;SDS011;29555;45.350;5.578;2023-10-13T02:05:03;4.28;;;3.47;;
43891;SDS011;29555;45.350;5.578;2023-10-13T02:07:29;8.18;;;3.35;;
43891;SDS011;29555;45.350;5.578;2023-10-13T02:09:58;4.82;;;3.08;;
43891;SDS011;29555;45.350;5.578;2023-10-13T02:12:23;6.18;;;3.20;;
43891;SDS011;29555;45.350;5.578;2023-10-13T02:15:01;5.82;;;3.05;;
43891;SDS011;29555;45.350;5.578;2023-10-13T02:17:29;5.97;;;3.33;;
43891;SDS011;29555;45.350;5.578;2023-10-13T02:20:05;8.95;;;3.80;;
43891;SDS011;29555;45.350;5.578;2023-10-13T02:22:33;6.72;;;3.13;;
43891;SDS011;29555;45.350;5.578;2023-10-13T02:24:58;2.95;;;2.72;;
43891;SDS011;29555;45.350;5.578;2023-10-13T02:27:32;5.75;;;3.50;;
43891;SDS011;29555;45.350;5.578;2023-10-13T02:30:05;4.07;;;2.72;;
43891;SDS011;29555;45.350;5.578;2023-10-13T02:32:37;11.48;;;3.53;;
43891;SDS011;29555;45.350;5.578;2023-10-13T02:35:05;6.03;;;3.90;;
43891;SDS011;29555;45.350;5.578;2023-10-13T02:37:33;6.45;;;4.22;;
43891;SDS011;29555;45.350;5.578;2023-10-13T02:40:00;3.70;;;3.10;;
43891;SDS011;29555;45.350;5.578;2023-10-13T02:42:26;7.40;;;4.40;;
43891;SDS011;29555;45.350;5.578;2023-10-13T02:44:51;8.60;;;3.30;;
43891;SDS011;29555;45.350;5.578;2023-10-13T02:47:22;4.57;;;2.78;;
43891;SDS011;29555;45.350;5.578;2023-10-13T02:49:49;12.95;;;3.22;;
43891;SDS011;29555;45.350;5.578;2023-10-13T02:52:14;4.63;;;3.10;;
43891;SDS011;29555;45.350;5.578;2023-10-13T02:54:40;4.07;;;2.13;;
43891;SDS011;29555;45.350;5.578;2023-10-13T02:57:16;5.78;;;3.63;;
43891;SDS011;29555;45.350;5.578;2023-10-13T02:59:42;4.30;;;3.90;;
43891;SDS011;29555;45.350;5.578;2023-10-13T03:02:12;8.15;;;3.33;;
43891;SDS011;29555;45.350;5.578;2023-10-13T03:07:33;3.22;;;2.38;;
43891;SDS011;29555;45.350;5.578;2023-10-13T03:10:01;8.70;;;3.08;;
43891;SDS011;29555;45.350;5.578;2023-10-13T03:12:36;4.78;;;4.07;;
43891;SDS011;29555;45.350;5.578;2023-10-13T03:15:02;4.85;;;3.40;;
43891;SDS011;29555;45.350;5.578;2023-10-13T03:17:55;5.25;;;3.30;;
43891;SDS011;29555;45.350;5.578;2023-10-13T03:20:20;6.45;;;3.40;;
43891;SDS011;29555;45.350;5.578;2023-10-13T03:22:58;5.30;;;3.03;;
43891;SDS011;29555;45.350;5.578;2023-10-13T03:25:24;13.68;;;3.63;;
43891;SDS011;29555;45.350;5.578;2023-10-13T03:28:02;6.32;;;3.47;;
43891;SDS011;29555;45.350;5.578;2023-10-13T03:30:30;3.53;;;2.67;;
43891;SDS011;29555;45.350;5.578;2023-10-13T03:33:07;6.13;;;3.75;;
43891;SDS011;29555;45.350;5.578;2023-10-13T03:35:37;4.32;;;2.63;;
43891;SDS011;29555;45.350;5.578;2023-10-13T03:38:04;5.80;;;3.42;;
43891;SDS011;29555;45.350;5.578;2023-10-13T03:40:46;6.60;;;3.47;;
43891;SDS011;29555;45.350;5.578;2023-10-13T03:43:21;5.25;;;3.30;;
43891;SDS011;29555;45.350;5.578;2023-10-13T03:45:48;7.65;;;3.10;;
43891;SDS011;29555;45.350;5.578;2023-10-13T03:48:25;5.65;;;2.90;;
43891;SDS011;29555;45.350;5.578;2023-10-13T03:50:58;5.03;;;3.30;;
43891;SDS011;29555;45.350;5.578;2023-10-13T03:53:39;4.85;;;3.22;;
43891;SDS011;29555;45.350;5.578;2023-10-13T03:56:20;12.63;;;2.90;;
43891;SDS011;29555;45.350;5.578;2023-10-13T03:58:56;4.85;;;3.05;;
43891;SDS011;29555;45.350;5.578;2023-10-13T04:01:46;9.73;;;3.83;;
43891;SDS011;29555;45.350;5.578;2023-10-13T04:07:10;6.03;;;2.97;;
43891;SDS011;29555;45.350;5.578;2023-10-13T04:09:36;9.60;;;3.15;;
43891;SDS011;29555;45.350;5.578;2023-10-13T04:12:02;6.50;;;3.35;;
43891;SDS011;29555;45.350;5.578;2023-10-13T04:14:29;6.97;;;3.45;;
43891;SDS011;29555;45.350;5.578;2023-10-13T04:17:13;7.90;;;2.88;;
43891;SDS011;29555;45.350;5.578;2023-10-13T04:19:42;4.50;;;3.75;;
43891;SDS011;29555;45.350;5.578;2023-10-13T04:22:27;4.25;;;3.45;;
43891;SDS011;29555;45.350;5.578;2023-10-13T04:25:29;4.30;;;3.35;;
43891;SDS011;29555;45.350;5.578;2023-10-13T04:30:43;7.03;;;4.10;;
43891;SDS011;29555;45.350;5.578;2023-10-13T04:36:12;6.53;;;3.00;;
43891;SDS011;29555;45.350;5.578;2023-10-13T04:38:46;6.03;;;3.88;;
43891;SDS011;29555;45.350;5.578;2023-10-13T04:41:28;5.63;;;3.28;;
43891;SDS011;29555;45.350;5.578;2023-10-13T04:44:01;5.22;;;3.25;;
43891;SDS011;29555;45.350;5.578;2023-10-13T04:46:30;7.07;;;4.28;;
43891;SDS011;29555;45.350;5.578;2023-10-13T04:49:22;5.70;;;3.85;;
43891;SDS011;29555;45.350;5.578;2023-10-13T04:51:57;8.52;;;4.47;;
43891;SDS011;29555;45.350;5.578;2023-10-13T04:54:27;12.35;;;4.22;;
43891;SDS011;29555;45.350;5.578;2023-10-13T04:57:00;10.43;;;4.30;;
43891;SDS011;29555;45.350;5.578;2023-10-13T04:59:45;5.82;;;3.20;;
43891;SDS011;29555;45.350;5.578;2023-10-13T05:02:32;13.60;;;3.88;;
43891;SDS011;29555;45.350;5.578;2023-10-13T05:05:01;14.48;;;3.95;;
43891;SDS011;29555;45.350;5.578;2023-10-13T05:07:36;5.88;;;2.45;;
43891;SDS011;29555;45.350;5.578;2023-10-13T05:10:20;4.65;;;2.83;;
43891;SDS011;29555;45.350;5.578;2023-10-13T05:13:03;3.35;;;3.05;;
43891;SDS011;29555;45.350;5.578;2023-10-13T05:15:48;8.68;;;4.30;;
43891;SDS011;29555;45.350;5.578;2023-10-13T05:18:33;4.75;;;3.53;;
43891;SDS011;29555;45.350;5.578;2023-10-13T05:21:17;6.22;;;4.20;;
43891;SDS011;29555;45.350;5.578;2023-10-13T05:24:01;6.28;;;3.63;;
43891;SDS011;29555;45.350;5.578;2023-10-13T05:26:45;5.45;;;3.40;;
43891;SDS011;29555;45.350;5.578;2023-10-13T05:29:29;12.88;;;3.83;;
43891;SDS011;29555;45.350;5.578;2023-10-13T05:32:13;13.50;;;4.65;;
43891;SDS011;29555;45.350;5.578;2023-10-13T05:34:57;4.72;;;3.35;;
43891;SDS011;29555;45.350;5.578;2023-10-13T05:37:41;9.48;;;3.15;;
43891;SDS011;29555;45.350;5.578;2023-10-13T05:40:25;6.80;;;2.97;;
43891;SDS011;29555;45.350;5.578;2023-10-13T05:43:09;4.60;;;3.70;;
43891;SDS011;29555;45.350;5.578;2023-10-13T05:45:52;6.75;;;4.25;;
43891;SDS011;29555;45.350;5.578;2023-10-13T05:48:37;7.85;;;3.88;;
43891;SDS011;29555;45.350;5.578;2023-10-13T05:51:37;14.35;;;3.85;;
43891;SDS011;29555;45.350;5.578;2023-10-13T05:54:03;6.53;;;4.13;;
43891;SDS011;29555;45.350;5.578;2023-10-13T05:56:38;10.73;;;3.80;;
43891;SDS011;29555;45.350;5.578;2023-10-13T05:59:29;10.27;;;4.45;;
43891;SDS011;29555;45.350;5.578;2023-10-13T06:02:14;10.75;;;4.13;;
43891;SDS011;29555;45.350;5.578;2023-10-13T06:05:06;5.32;;;3.40;;
43891;SDS011;29555;45.350;5.578;2023-10-13T06:07:51;7.60;;;4.38;;
43891;SDS011;29555;45.350;5.578;2023-10-13T06:10:35;7.35;;;5.10;;
43891;SDS011;29555;45.350;5.578;2023-10-13T06:13:20;8.40;;;3.95;;
43891;SDS011;29555;45.350;5.578;2023-10-13T06:16:05;3.92;;;3.63;;
43891;SDS011;29555;45.350;5.578;2023-10-13T06:18:50;6.43;;;3.97;;
43891;SDS011;29555;45.350;5.578;2023-10-13T06:21:34;4.82;;;3.65;;
43891;SDS011;29555;45.350;5.578;2023-10-13T06:24:17;10.52;;;3.55;;
43891;SDS011;29555;45.350;5.578;2023-10-13T06:27:01;6.20;;;3.28;;
43891;SDS011;29555;45.350;5.578;2023-10-13T06:29:46;11.57;;;4.13;;
43891;SDS011;29555;45.350;5.578;2023-10-13T06:32:12;5.90;;;3.67;;
43891;SDS011;29555;45.350;5.578;2023-10-13T06:34:38;5.85;;;3.22;;
43891;SDS011;29555;45.350;5.578;2023-10-13T06:37:09;6.55;;;3.10;;
43891;SDS011;29555;45.350;5.578;2023-10-13T06:39:51;7.68;;;3.95;;
43891;SDS011;29555;45.350;5.578;2023-10-13T06:42:21;4.82;;;3.53;;
43891;SDS011;29555;45.350;5.578;2023-10-13T06:44:52;4.93;;;3.10;;
43891;SDS011;29555;45.350;5.578;2023-10-13T06:47:19;5.60;;;3.28;;
43891;SDS011;29555;45.350;5.578;2023-10-13T06:49:45;5.55;;;3.50;;
43891;SDS011;29555;45.350;5.578;2023-10-13T06:52:13;6.47;;;3.92;;
43891;SDS011;29555;45.350;5.578;2023-10-13T06:54:41;6.07;;;3.10;;
43891;SDS011;29555;45.350;5.578;2023-10-13T06:57:08;9.15;;;4.35;;
43891;SDS011;29555;45.350;5.578;2023-10-13T06:59:39;9.63;;;3.95;;
43891;SDS011;29555;45.350;5.578;2023-10-13T07:02:05;4.07;;;2.85;;
43891;SDS011;29555;45.350;5.578;2023-10-13T07:04:31;5.10;;;2.50;;
43891;SDS011;29555;45.350;5.578;2023-10-13T07:06:57;4.13;;;3.00;;
43891;SDS011;29555;45.350;5.578;2023-10-13T07:09:22;4.70;;;3.15;;
43891;SDS011;29555;45.350;5.578;2023-10-13T07:12:00;3.10;;;2.47;;
43891;SDS011;29555;45.350;5.578;2023-10-13T07:14:31;3.50;;;2.70;;
43891;SDS011;29555;45.350;5.578;2023-10-13T07:17:05;7.55;;;3.22;;
43891;SDS011;29555;45.350;5.578;2023-10-13T07:19:32;6.63;;;3.35;;
43891;SDS011;29555;45.350;5.578;2023-10-13T07:21:59;6.13;;;2.50;;
43891;SDS011;29555;45.350;5.578;2023-10-13T07:24:47;5.25;;;2.80;;
43891;SDS011;29555;45.350;5.578;2023-10-13T07:27:20;15.13;;;3.17;;
43891;SDS011;29555;45.350;5.578;2023-10-13T07:29:50;10.10;;;2.90;;
43891;SDS011;29555;45.350;5.578;2023-10-13T07:32:25;7.30;;;3.47;;
43891;SDS011;29555;45.350;5.578;2023-10-13T07:34:54;7.00;;;2.92;;
43891;SDS011;29555;45.350;5.578;2023-10-13T07:37:23;3.17;;;2.63;;
43891;SDS011;29555;45.350;5.578;2023-10-13T07:39:53;8.98;;;2.65;;
43891;SDS011;29555;45.350;5.578;2023-10-13T07:42:22;5.75;;;2.55;;
43891;SDS011;29555;45.350;5.578;2023-10-13T07:44:50;10.77;;;2.90;;
43891;SDS011;29555;45.350;5.578;2023-10-13T07:47:20;6.22;;;2.88;;
43891;SDS011;29555;45.350;5.578;2023-10-13T07:49:49;3.25;;;2.38;;
43891;SDS011;29555;45.350;5.578;2023-10-13T07:52:15;4.32;;;2.47;;
43891;SDS011;29555;45.350;5.578;2023-10-13T07:54:44;3.70;;;2.28;;
43891;SDS011;29555;45.350;5.578;2023-10-13T07:57:15;5.93;;;2.72;;
43891;SDS011;29555;45.350;5.578;2023-10-13T07:59:42;4.18;;;3.78;;
43891;SDS011;29555;45.350;5.578;2023-10-13T08:02:19;5.07;;;3.15;;
43891;SDS011;29555;45.350;5.578;2023-10-13T08:05:08;7.15;;;2.95;;
43891;SDS011;29555;45.350;5.578;2023-10-13T08:07:34;4.72;;;3.05;;
43891;SDS011;29555;45.350;5.578;2023-10-13T08:10:04;5.90;;;3.42;;
43891;SDS011;29555;45.350;5.578;2023-10-13T08:12:34;4.13;;;2.88;;
43891;SDS011;29555;45.350;5.578;2023-10-13T08:15:02;11.43;;;2.45;;
43891;SDS011;29555;45.350;5.578;2023-10-13T08:17:46;3.38;;;2.72;;
43891;SDS011;29555;45.350;5.578;2023-10-13T08:20:12;8.15;;;3.40;;
43891;SDS011;29555;45.350;5.578;2023-10-13T08:22:41;11.18;;;3.10;;
43891;SDS011;29555;45.350;5.578;2023-10-13T08:25:12;4.28;;;3.53;;
43891;SDS011;29555;45.350;5.578;2023-10-13T08:27:45;4.43;;;2.67;;
43891;SDS011;29555;45.350;5.578;2023-10-13T08:30:34;11.00;;;3.15;;
43891;SDS011;29555;45.350;5.578;2023-10-13T08:33:16;10.70;;;3.15;;
43891;SDS011;29555;45.350;5.578;2023-10-13T08:35:42;5.90;;;4.03;;
43891;SDS011;29555;45.350;5.578;2023-10-13T08:38:19;5.90;;;2.40;;
43891;SDS011;29555;45.350;5.578;2023-10-13T08:40:53;13.48;;;3.00;;
43891;SDS011;29555;45.350;5.578;2023-10-13T08:43:42;4.90;;;3.97;;
43891;SDS011;29555;45.350;5.578;2023-10-13T08:46:15;4.10;;;3.38;;
43891;SDS011;29555;45.350;5.578;2023-10-13T08:48:59;11.02;;;3.95;;
43891;SDS011;29555;45.350;5.578;2023-10-13T08:51:39;8.07;;;4.15;;
43891;SDS011;29555;45.350;5.578;2023-10-13T08:54:10;7.38;;;4.78;;
43891;SDS011;29555;45.350;5.578;2023-10-13T08:56:44;10.80;;;5.72;;
43891;SDS011;29555;45.350;5.578;2023-10-13T08:59:22;10.02;;;4.30;;
43891;SDS011;29555;45.350;5.578;2023-10-13T09:02:18;4.82;;;3.85;;
43891;SDS011;29555;45.350;5.578;2023-10-13T09:04:47;9.45;;;5.80;;
43891;SDS011;29555;45.350;5.578;2023-10-13T09:07:24;7.97;;;4.30;;
43891;SDS011;29555;45.350;5.578;2023-10-13T09:09:50;21.35;;;5.68;;
43891;SDS011;29555;45.350;5.578;2023-10-13T09:12:19;10.13;;;6.78;;
43891;SDS011;29555;45.350;5.578;2023-10-13T09:14:54;14.15;;;5.75;;
43891;SDS011;29555;45.350;5.578;2023-10-13T09:17:26;11.75;;;6.18;;
43891;SDS011;29555;45.350;5.578;2023-10-13T09:19:58;13.45;;;5.68;;
43891;SDS011;29555;45.350;5.578;2023-10-13T09:25:00;11.88;;;6.95;;
43891;SDS011;29555;45.350;5.578;2023-10-13T09:27:27;7.10;;;5.63;;
43891;SDS011;29555;45.350;5.578;2023-10-13T09:29:55;16.63;;;6.80;;
43891;SDS011;29555;45.350;5.578;2023-10-13T09:32:21;8.55;;;5.80;;
43891;SDS011;29555;45.350;5.578;2023-10-13T09:34:47;10.40;;;6.65;;
43891;SDS011;29555;45.350;5.578;2023-10-13T09:37:15;17.33;;;7.47;;
43891;SDS011;29555;45.350;5.578;2023-10-13T09:39:52;11.02;;;6.28;;
43891;SDS011;29555;45.350;5.578;2023-10-13T09:42:19;17.23;;;6.38;;
43891;SDS011;29555;45.350;5.578;2023-10-13T09:44:48;9.63;;;7.10;;
43891;SDS011;29555;45.350;5.578;2023-10-13T09:47:21;14.55;;;7.28;;
43891;SDS011;29555;45.350;5.578;2023-10-13T09:49:56;11.93;;;6.75;;
43891;SDS011;29555;45.350;5.578;2023-10-13T09:52:28;9.27;;;7.70;;
43891;SDS011;29555;45.350;5.578;2023-10-13T09:57:31;7.28;;;6.47;;
43891;SDS011;29555;45.350;5.578;2023-10-13T10:00:21;8.50;;;5.68;;
43891;SDS011;29555;45.350;5.578;2023-10-13T10:03:06;7.57;;;5.57;;
43891;SDS011;29555;45.350;5.578;2023-10-13T10:06:00;9.75;;;6.25;;
43891;SDS011;29555;45.350;5.578;2023-10-13T10:08:40;7.95;;;5.85;;
43891;SDS011;29555;45.350;5.578;2023-10-13T10:16:39;7.53;;;5.75;;
43891;SDS011;29555;45.350;5.578;2023-10-13T10:19:14;9.02;;;6.28;;
43891;SDS011;29555;45.350;5.578;2023-10-13T10:21:40;7.53;;;5.80;;
43891;SDS011;29555;45.350;5.578;2023-10-13T10:24:21;7.53;;;6.55;;
43891;SDS011;29555;45.350;5.578;2023-10-13T10:26:55;8.00;;;5.05;;
43891;SDS011;29555;45.350;5.578;2023-10-13T10:29:21;7.18;;;5.07;;
43891;SDS011;29555;45.350;5.578;2023-10-13T10:31:47;6.28;;;5.60;;
43891;SDS011;29555;45.350;5.578;2023-10-13T10:34:14;7.72;;;4.82;;
43891;SDS011;29555;45.350;5.578;2023-10-13T10:36:45;9.65;;;5.43;;
43891;SDS011;29555;45.350;5.578;2023-10-13T10:39:11;8.65;;;4.90;;
43891;SDS011;29555;45.350;5.578;2023-10-13T10:41:37;12.95;;;6.05;;
43891;SDS011;29555;45.350;5.578;2023-10-13T10:44:23;11.63;;;5.78;;
43891;SDS011;29555;45.350;5.578;2023-10-13T10:47:11;8.10;;;4.32;;
43891;SDS011;29555;45.350;5.578;2023-10-13T10:49:56;6.65;;;4.60;;
43891;SDS011;29555;45.350;5.578;2023-10-13T10:52:25;6.70;;;4.43;;
43891;SDS011;29555;45.350;5.578;2023-10-13T10:55:01;5.63;;;4.63;;
43891;SDS011;29555;45.350;5.578;2023-10-13T10:57:31;7.82;;;5.35;;
43891;SDS011;29555;45.350;5.578;2023-10-13T11:00:02;6.68;;;4.13;;
43891;SDS011;29555;45.350;5.578;2023-10-13T11:02:39;9.73;;;4.78;;
43891;SDS011;29555;45.350;5.578;2023-10-13T11:05:06;7.10;;;5.00;;
43891;SDS011;29555;45.350;5.578;2023-10-13T11:07:34;5.07;;;4.53;;
43891;SDS011;29555;45.350;5.578;2023-10-13T11:10:10;5.75;;;4.90;;
43891;SDS011;29555;45.350;5.578;2023-10-13T11:12:57;8.35;;;5.35;;
43891;SDS011;29555;45.350;5.578;2023-10-13T11:15:41;10.15;;;4.65;;
43891;SDS011;29555;45.350;5.578;2023-10-13T11:18:10;7.43;;;4.45;;
43891;SDS011;29555;45.350;5.578;2023-10-13T11:20:42;7.73;;;3.90;;
43891;SDS011;29555;45.350;5.578;2023-10-13T11:23:14;5.47;;;4.15;;
43891;SDS011;29555;45.350;5.578;2023-10-13T11:25:40;5.30;;;4.53;;
43891;SDS011;29555;45.350;5.578;2023-10-13T11:28:16;4.40;;;3.95;;
43891;SDS011;29555;45.350;5.578;2023-10-13T11:30:46;7.55;;;3.70;;
43891;SDS011;29555;45.350;5.578;2023-10-13T11:33:15;10.80;;;3.95;;
43891;SDS011;29555;45.350;5.578;2023-10-13T11:36:01;7.90;;;3.67;;
43891;SDS011;29555;45.350;5.578;2023-10-13T11:38:29;6.30;;;4.47;;
43891;SDS011;29555;45.350;5.578;2023-10-13T11:41:30;6.93;;;5.25;;
43891;SDS011;29555;45.350;5.578;2023-10-13T11:44:10;5.57;;;3.38;;
43891;SDS011;29555;45.350;5.578;2023-10-13T11:46:48;5.82;;;3.65;;
43891;SDS011;29555;45.350;5.578;2023-10-13T11:49:20;5.95;;;5.18;;
43891;SDS011;29555;45.350;5.578;2023-10-13T11:51:52;5.70;;;4.00;;
43891;SDS011;29555;45.350;5.578;2023-10-13T11:54:18;5.25;;;4.75;;
43891;SDS011;29555;45.350;5.578;2023-10-13T11:56:45;4.60;;;3.88;;
43891;SDS011;29555;45.350;5.578;2023-10-13T11:59:11;3.60;;;3.08;;
43891;SDS011;29555;45.350;5.578;2023-10-13T12:01:45;6.75;;;4.50;;
43891;SDS011;29555;45.350;5.578;2023-10-13T12:04:33;7.57;;;4.82;;
43891;SDS011;29555;45.350;5.578;2023-10-13T12:07:17;17.67;;;5.15;;
43891;SDS011;29555;45.350;5.578;2023-10-13T12:09:48;4.72;;;4.25;;
43891;SDS011;29555;45.350;5.578;2023-10-13T12:12:28;6.28;;;4.88;;
43891;SDS011;29555;45.350;5.578;2023-10-13T12:14:55;8.35;;;4.20;;
43891;SDS011;29555;45.350;5.578;2023-10-13T12:17:21;10.68;;;5.10;;
43891;SDS011;29555;45.350;5.578;2023-10-13T12:19:56;5.63;;;4.60;;
43891;SDS011;29555;45.350;5.578;2023-10-13T12:22:24;7.63;;;5.13;;
43891;SDS011;29555;45.350;5.578;2023-10-13T12:25:07;6.57;;;4.82;;
43891;SDS011;29555;45.350;5.578;2023-10-13T12:27:52;7.97;;;5.45;;
43891;SDS011;29555;45.350;5.578;2023-10-13T12:30:22;11.85;;;5.13;;
43891;SDS011;29555;45.350;5.578;2023-10-13T12:33:00;12.00;;;4.68;;
43891;SDS011;29555;45.350;5.578;2023-10-13T12:35:33;5.72;;;4.07;;
43891;SDS011;29555;45.350;5.578;2023-10-13T12:38:22;6.47;;;4.63;;
43891;SDS011;29555;45.350;5.578;2023-10-13T12:41:06;4.90;;;4.13;;
43891;SDS011;29555;45.350;5.578;2023-10-13T12:43:50;9.00;;;4.43;;
43891;SDS011;29555;45.350;5.578;2023-10-13T12:46:34;5.68;;;4.30;;
43891;SDS011;29555;45.350;5.578;2023-10-13T12:49:18;10.18;;;4.93;;
43891;SDS011;29555;45.350;5.578;2023-10-13T12:52:14;7.72;;;4.50;;
43891;SDS011;29555;45.350;5.578;2023-10-13T12:54:51;7.97;;;5.25;;
43891;SDS011;29555;45.350;5.578;2023-10-13T12:57:22;6.88;;;3.83;;
43891;SDS011;29555;45.350;5.578;2023-10-13T12:59:48;5.15;;;4.65;;
43891;SDS011;29555;45.350;5.578;2023-10-13T13:02:20;10.63;;;5.93;;
43891;SDS011;29555;45.350;5.578;2023-10-13T13:04:46;4.65;;;3.75;;
43891;SDS011;29555;45.350;5.578;2023-10-13T13:07:16;6.95;;;5.63;;
43891;SDS011;29555;45.350;5.578;2023-10-13T13:09:42;5.20;;;4.70;;
43891;SDS011;29555;45.350;5.578;2023-10-13T13:12:07;5.80;;;4.32;;
43891;SDS011;29555;45.350;5.578;2023-10-13T13:14:37;5.55;;;5.05;;
43891;SDS011;29555;45.350;5.578;2023-10-13T13:17:05;8.95;;;4.85;;
43891;SDS011;29555;45.350;5.578;2023-10-13T13:19:31;5.88;;;5.10;;
43891;SDS011;29555;45.350;5.578;2023-10-13T13:22:06;6.15;;;4.65;;
43891;SDS011;29555;45.350;5.578;2023-10-13T13:27:08;7.78;;;5.90;;
43891;SDS011;29555;45.350;5.578;2023-10-13T13:29:38;11.73;;;5.53;;
43891;SDS011;29555;45.350;5.578;2023-10-13T13:32:07;5.55;;;4.30;;
43891;SDS011;29555;45.350;5.578;2023-10-13T13:34:43;5.32;;;4.50;;
43891;SDS011;29555;45.350;5.578;2023-10-13T13:37:09;4.50;;;4.00;;
43891;SDS011;29555;45.350;5.578;2023-10-13T13:39:37;4.97;;;4.40;;
43891;SDS011;29555;45.350;5.578;2023-10-13T13:42:08;5.85;;;4.15;;
43891;SDS011;29555;45.350;5.578;2023-10-13T13:44:34;5.55;;;3.92;;
43891;SDS011;29555;45.350;5.578;2023-10-13T13:47:03;8.32;;;5.35;;
43891;SDS011;29555;45.350;5.578;2023-10-13T13:49:37;4.18;;;3.78;;
43891;SDS011;29555;45.350;5.578;2023-10-13T13:52:06;5.95;;;4.80;;
43891;SDS011;29555;45.350;5.578;2023-10-13T13:54:32;5.70;;;3.75;;
43891;SDS011;29555;45.350;5.578;2023-10-13T13:56:58;4.10;;;3.80;;
43891;SDS011;29555;45.350;5.578;2023-10-13T13:59:23;5.95;;;3.65;;
43891;SDS011;29555;45.350;5.578;2023-10-13T14:01:49;10.60;;;4.75;;
43891;SDS011;29555;45.350;5.578;2023-10-13T14:04:17;6.70;;;3.38;;
43891;SDS011;29555;45.350;5.578;2023-10-13T14:06:43;11.52;;;4.03;;
43891;SDS011;29555;45.350;5.578;2023-10-13T14:09:10;11.23;;;3.60;;
43891;SDS011;29555;45.350;5.578;2023-10-13T14:12:00;3.22;;;2.95;;
43891;SDS011;29555;45.350;5.578;2023-10-13T14:14:46;5.80;;;4.00;;
43891;SDS011;29555;45.350;5.578;2023-10-13T14:17:20;4.95;;;4.45;;
43891;SDS011;29555;45.350;5.578;2023-10-13T14:19:51;8.85;;;4.45;;
43891;SDS011;29555;45.350;5.578;2023-10-13T14:22:16;5.05;;;3.95;;
43891;SDS011;29555;45.350;5.578;2023-10-13T14:24:42;11.55;;;4.22;;
43891;SDS011;29555;45.350;5.578;2023-10-13T14:27:16;7.05;;;3.28;;
43891;SDS011;29555;45.350;5.578;2023-10-13T14:29:47;5.65;;;3.40;;
43891;SDS011;29555;45.350;5.578;2023-10-13T14:32:18;8.63;;;3.45;;
43891;SDS011;29555;45.350;5.578;2023-10-13T14:34:44;4.30;;;3.65;;
43891;SDS011;29555;45.350;5.578;2023-10-13T14:37:13;3.35;;;2.45;;
43891;SDS011;29555;45.350;5.578;2023-10-13T14:39:39;9.18;;;3.65;;
43891;SDS011;29555;45.350;5.578;2023-10-13T14:42:05;3.42;;;3.13;;
43891;SDS011;29555;45.350;5.578;2023-10-13T14:44:31;5.40;;;3.42;;
43891;SDS011;29555;45.350;5.578;2023-10-13T14:46:58;4.78;;;2.60;;
43891;SDS011;29555;45.350;5.578;2023-10-13T14:49:23;5.03;;;3.83;;
43891;SDS011;29555;45.350;5.578;2023-10-13T14:51:49;4.03;;;3.20;;
43891;SDS011;29555;45.350;5.578;2023-10-13T14:54:15;8.38;;;3.92;;
43891;SDS011;29555;45.350;5.578;2023-10-13T14:56:41;3.45;;;3.15;;
43891;SDS011;29555;45.350;5.578;2023-10-13T14:59:07;4.63;;;3.15;;
43891;SDS011;29555;45.350;5.578;2023-10-13T15:01:39;10.77;;;3.80;;
43891;SDS011;29555;45.350;5.578;2023-10-13T15:04:05;13.25;;;3.33;;
43891;SDS011;29555;45.350;5.578;2023-10-13T15:06:31;15.45;;;4.07;;
43891;SDS011;29555;45.350;5.578;2023-10-13T15:08:57;10.25;;;3.17;;
43891;SDS011;29555;45.350;5.578;2023-10-13T15:11:24;5.95;;;3.53;;
43891;SDS011;29555;45.350;5.578;2023-10-13T15:14:03;6.72;;;3.00;;
43891;SDS011;29555;45.350;5.578;2023-10-13T15:16:31;5.57;;;3.50;;
43891;SDS011;29555;45.350;5.578;2023-10-13T15:18:58;3.28;;;2.20;;
43891;SDS011;29555;45.350;5.578;2023-10-13T15:21:25;7.68;;;3.55;;
43891;SDS011;29555;45.350;5.578;2023-10-13T15:23:55;5.15;;;3.78;;
43891;SDS011;29555;45.350;5.578;2023-10-13T15:26:25;4.65;;;3.53;;
43891;SDS011;29555;45.350;5.578;2023-10-13T15:28:51;2.63;;;2.33;;
43891;SDS011;29555;45.350;5.578;2023-10-13T15:31:20;4.32;;;3.42;;
43891;SDS011;29555;45.350;5.578;2023-10-13T15:34:08;4.90;;;3.53;;
43891;SDS011;29555;45.350;5.578;2023-10-13T15:36:40;3.85;;;3.50;;
43891;SDS011;29555;45.350;5.578;2023-10-13T15:39:08;6.55;;;4.40;;
43891;SDS011;29555;45.350;5.578;2023-10-13T15:41:35;10.55;;;4.05;;
43891;SDS011;29555;45.350;5.578;2023-10-13T15:44:04;6.93;;;3.17;;
43891;SDS011;29555;45.350;5.578;2023-10-13T15:46:35;5.88;;;3.38;;